createdAt,value
2018-09-06T00:00:21.296Z,10.38
2018-09-06T00:02:50.957Z,11.10
2018-09-06T00:05:31.247Z,10.48
2018-09-06T00:07:59.513Z,11.35
2018-09-06T00:10:27.785Z,11.25
2018-09-06T00:13:08.268Z,11.28
2018-09-06T00:15:48.877Z,11.55
2018-09-06T00:18:29.369Z,10.68
2018-09-06T00:21:09.927Z,13.83
2018-09-06T00:23:50.570Z,11.48
2018-09-06T00:26:31.157Z,12.23
2018-09-06T00:29:11.860Z,10.80
2018-09-06T00:31:52.544Z,10.45
2018-09-06T00:34:33.134Z,11.53
2018-09-06T00:37:01.357Z,11.05
2018-09-06T00:39:41.505Z,11.05
2018-09-06T00:42:22.074Z,10.45
2018-09-06T00:44:50.316Z,10.72
2018-09-06T00:47:19.024Z,11.03
2018-09-06T00:50:00.002Z,10.28
2018-09-06T00:52:29.222Z,11.73
2018-09-06T00:55:09.465Z,12.53
2018-09-06T00:57:50.092Z,12.00
2018-09-06T01:00:30.731Z,11.15
2018-09-06T01:02:59.001Z,12.33
2018-09-06T01:05:39.233Z,11.55
2018-09-06T01:08:19.853Z,11.30
2018-09-06T01:10:51.240Z,12.30
2018-09-06T01:13:20.420Z,13.22
2018-09-06T01:15:48.705Z,13.90
2018-09-06T01:18:16.934Z,11.63
2018-09-06T01:20:48.557Z,12.45
2018-09-06T01:23:29.181Z,12.50
2018-09-06T01:25:58.452Z,12.23
2018-09-06T01:28:26.710Z,12.10
2018-09-06T01:31:01.065Z,11.65
2018-09-06T01:33:42.240Z,11.50
2018-09-06T01:36:16.098Z,12.85
2018-09-06T01:38:56.760Z,12.13
2018-09-06T01:41:37.288Z,12.60
2018-09-06T01:44:09.457Z,12.75
2018-09-06T01:46:49.627Z,12.73
2018-09-06T01:49:30.608Z,12.80
2018-09-06T01:51:58.849Z,13.00
2018-09-06T01:54:27.121Z,13.62
2018-09-06T01:56:56.233Z,12.70
2018-09-06T01:59:24.490Z,12.78
2018-09-06T02:01:54.046Z,12.70
2018-09-06T02:04:35.135Z,13.75
2018-09-06T02:07:15.826Z,14.15
2018-09-06T02:09:57.373Z,12.33
2018-09-06T02:12:25.764Z,12.25
2018-09-06T02:14:54.063Z,14.07
2018-09-06T02:17:34.721Z,13.20
2018-09-06T02:20:15.320Z,12.95
2018-09-06T02:22:55.928Z,13.28
2018-09-06T02:25:36.428Z,14.28
2018-09-06T02:28:17.085Z,14.23
2018-09-06T02:30:57.562Z,14.95
2018-09-06T02:33:38.186Z,15.50
2018-09-06T02:36:19.562Z,14.28
2018-09-06T02:39:00.432Z,13.45
2018-09-06T02:41:35.863Z,15.05
2018-09-06T02:44:09.061Z,14.15
2018-09-06T02:46:38.740Z,14.45
2018-09-06T02:49:24.419Z,14.63
2018-09-06T02:52:05.034Z,14.45
2018-09-06T02:54:45.691Z,15.20
2018-09-06T02:57:26.325Z,12.90
2018-09-06T02:59:55.103Z,14.87
2018-09-06T03:02:35.635Z,15.23
2018-09-06T03:05:03.947Z,14.85
2018-09-06T03:07:32.312Z,16.00
2018-09-06T03:10:01.029Z,14.45
2018-09-06T03:12:29.214Z,14.83
2018-09-06T03:15:09.436Z,15.50
2018-09-06T03:17:37.723Z,15.32
2018-09-06T03:20:05.989Z,14.53
2018-09-06T03:22:35.428Z,15.03
2018-09-06T03:25:15.576Z,13.95
2018-09-06T03:27:56.238Z,13.72
2018-09-06T03:30:37.014Z,13.83
2018-09-06T03:33:17.637Z,15.45
2018-09-06T03:35:58.299Z,15.65
2018-09-06T03:38:27.987Z,14.75
2018-09-06T03:41:08.753Z,16.00
2018-09-06T03:43:43.417Z,15.68
2018-09-06T03:46:13.142Z,17.05
2018-09-06T03:48:42.510Z,14.90
2018-09-06T03:51:10.721Z,15.72
2018-09-06T03:53:39.528Z,15.55
2018-09-06T03:56:20.083Z,15.10
2018-09-06T03:59:00.532Z,15.10
2018-09-06T04:01:41.063Z,16.75
2018-09-06T04:04:21.741Z,15.65
2018-09-06T04:07:02.319Z,16.75
2018-09-06T04:09:30.581Z,17.23
2018-09-06T04:12:10.852Z,16.25
2018-09-06T04:14:51.640Z,17.80
2018-09-06T04:17:32.482Z,18.62
2018-09-06T04:20:13.020Z,17.12
2018-09-06T04:22:53.528Z,17.27
2018-09-06T04:25:34.369Z,18.40
2018-09-06T04:28:02.684Z,18.80
2018-09-06T04:30:30.932Z,17.35
2018-09-06T04:33:11.085Z,18.70
2018-09-06T04:35:51.795Z,17.62
2018-09-06T04:38:20.095Z,19.40
2018-09-06T04:41:00.329Z,18.15
2018-09-06T04:43:41.087Z,19.45
2018-09-06T04:46:21.466Z,17.12
2018-09-06T04:48:49.742Z,18.45
2018-09-06T04:51:30.852Z,22.90
2018-09-06T04:53:59.109Z,17.05
2018-09-06T04:56:39.333Z,21.30
2018-09-06T04:59:19.989Z,18.05
2018-09-06T05:02:00.560Z,18.80
2018-09-06T05:04:41.127Z,17.73
2018-09-06T05:07:21.769Z,18.45
2018-09-06T05:10:02.454Z,20.27
2018-09-06T05:12:30.768Z,19.02
2018-09-06T05:14:59.049Z,19.98
2018-09-06T05:17:28.241Z,19.92
2018-09-06T05:19:56.481Z,18.92
2018-09-06T05:22:28.401Z,20.10
2018-09-06T05:26:26.262Z,18.95
2018-09-06T05:29:02.902Z,19.02
2018-09-06T05:31:38.237Z,21.33
2018-09-06T05:34:18.621Z,18.70
2018-09-06T05:36:59.204Z,21.40
2018-09-06T05:39:40.072Z,19.85
2018-09-06T05:42:08.616Z,20.48
2018-09-06T05:44:49.748Z,19.37
2018-09-06T05:47:30.106Z,18.05
2018-09-06T05:49:58.373Z,20.23
2018-09-06T05:52:38.505Z,18.90
2018-09-06T05:55:19.314Z,21.40
2018-09-06T05:58:00.135Z,17.75
2018-09-06T06:00:33.701Z,18.98
2018-09-06T06:03:14.524Z,19.82
2018-09-06T06:05:55.301Z,22.50
2018-09-06T06:08:35.192Z,21.07
2018-09-06T06:11:15.633Z,22.05
2018-09-06T06:13:43.902Z,21.60
2018-09-06T06:16:13.198Z,21.40
2018-09-06T06:18:41.472Z,20.50
2018-09-06T06:21:09.781Z,18.77
2018-09-06T06:23:38.029Z,21.97
2018-09-06T06:26:07.066Z,21.35
2018-09-06T06:28:37.617Z,20.95
2018-09-06T06:31:05.908Z,23.05
2018-09-06T06:33:46.561Z,20.62
2018-09-06T06:36:27.243Z,21.73
2018-09-06T06:39:07.915Z,21.00
2018-09-06T06:41:36.140Z,22.95
2018-09-06T06:44:16.502Z,31.70
2018-09-06T06:46:44.763Z,23.85
2018-09-06T06:49:25.837Z,25.52
2018-09-06T06:51:54.113Z,22.93
2018-09-06T06:54:23.973Z,25.35
2018-09-06T06:57:04.138Z,23.30
2018-09-06T06:59:32.401Z,24.77
2018-09-06T07:02:16.515Z,21.85
2018-09-06T07:04:54.985Z,25.15
2018-09-06T07:07:23.668Z,26.80
2018-09-06T07:09:52.465Z,26.17
2018-09-06T07:12:21.242Z,26.57
2018-09-06T07:14:49.779Z,24.25
2018-09-06T07:17:18.168Z,24.57
2018-09-06T07:19:46.581Z,28.60
2018-09-06T07:22:15.078Z,27.40
2018-09-06T07:24:46.530Z,24.92
2018-09-06T07:27:14.805Z,23.60
2018-09-06T07:29:48.852Z,24.67
2018-09-06T07:32:18.660Z,22.67
2018-09-06T07:34:46.920Z,26.23
2018-09-06T07:37:15.304Z,25.48
2018-09-06T07:39:45.369Z,22.90
2018-09-06T07:42:15.708Z,25.72
2018-09-06T07:44:47.520Z,23.07
2018-09-06T07:47:16.550Z,20.97
2018-09-06T07:49:46.504Z,20.77
2018-09-06T07:52:16.454Z,20.50
2018-09-06T07:54:45.684Z,22.00
2018-09-06T07:57:14.032Z,19.35
2018-09-06T07:59:42.408Z,19.87
2018-09-06T08:02:23.565Z,19.32
2018-09-06T08:04:51.905Z,20.20
2018-09-06T08:07:32.740Z,17.50
2018-09-06T08:10:13.259Z,20.88
2018-09-06T08:12:53.858Z,21.40
2018-09-06T08:15:22.141Z,18.05
2018-09-06T08:17:54.408Z,17.57
2018-09-06T08:20:34.897Z,16.97
2018-09-06T08:23:15.652Z,17.42
2018-09-06T08:25:56.425Z,17.30
2018-09-06T08:28:26.604Z,17.12
2018-09-06T08:31:06.911Z,16.80
2018-09-06T08:33:47.469Z,16.17
2018-09-06T08:36:16.654Z,16.45
2018-09-06T08:38:56.931Z,17.57
2018-09-06T08:41:37.977Z,17.95
2018-09-06T08:44:19.207Z,15.98
2018-09-06T08:46:47.507Z,18.25
2018-09-06T08:49:28.373Z,17.95
2018-09-06T08:52:09.020Z,16.75
2018-09-06T08:54:49.733Z,16.12
2018-09-06T08:57:30.330Z,17.45
2018-09-06T09:00:00.171Z,22.87
2018-09-06T09:02:28.634Z,15.43
2018-09-06T09:05:08.642Z,16.07
2018-09-06T09:07:36.999Z,17.23
2018-09-06T09:10:17.221Z,15.53
2018-09-06T09:12:57.850Z,16.73
2018-09-06T09:15:38.491Z,15.38
2018-09-06T09:18:19.253Z,15.78
2018-09-06T09:20:59.759Z,22.60
2018-09-06T09:23:40.346Z,17.75
2018-09-06T09:26:08.616Z,15.58
2018-09-06T09:28:49.709Z,16.15
2018-09-06T09:31:30.239Z,15.20
2018-09-06T09:33:58.965Z,14.90
2018-09-06T09:36:27.210Z,13.50
2018-09-06T09:39:08.897Z,14.65
2018-09-06T09:41:49.891Z,14.90
2018-09-06T09:44:30.650Z,16.10
2018-09-06T09:49:39.131Z,14.93
2018-09-06T09:52:08.056Z,15.25
2018-09-06T09:54:48.505Z,14.30
2018-09-06T09:57:16.981Z,14.60
2018-09-06T09:59:57.829Z,13.48
2018-09-06T10:02:33.819Z,13.80
2018-09-06T10:05:07.904Z,13.95
2018-09-06T10:07:41.617Z,13.32
2018-09-06T10:10:21.861Z,13.00
2018-09-06T10:12:50.108Z,13.72
2018-09-06T10:15:19.352Z,12.80
2018-09-06T10:18:00.174Z,13.75
2018-09-06T10:20:28.431Z,13.65
2018-09-06T10:23:08.823Z,13.05
2018-09-06T10:25:37.599Z,12.33
2018-09-06T10:28:18.851Z,11.43
2018-09-06T10:30:51.700Z,11.08
2018-09-06T10:33:21.337Z,10.53
2018-09-06T10:36:02.255Z,9.78
2018-09-06T10:38:43.123Z,11.15
2018-09-06T10:41:11.469Z,10.30
2018-09-06T10:43:52.428Z,9.53
2018-09-06T10:46:33.140Z,11.90
2018-09-06T10:49:13.776Z,11.90
2018-09-06T10:51:42.490Z,9.80
2018-09-06T10:54:23.293Z,9.90
2018-09-06T10:56:51.677Z,10.40
2018-09-06T10:59:19.914Z,9.40
2018-09-06T11:02:02.463Z,10.00
2018-09-06T11:04:43.365Z,10.70
2018-09-06T11:07:25.413Z,9.93
2018-09-06T11:10:06.656Z,9.70
2018-09-06T11:12:47.405Z,10.40
2018-09-06T11:15:28.250Z,12.07
2018-09-06T11:18:08.551Z,10.40
2018-09-06T11:20:36.787Z,8.70
2018-09-06T11:23:16.997Z,7.80
2018-09-06T11:25:59.592Z,8.13
2018-09-06T11:28:40.313Z,7.80
2018-09-06T11:31:08.585Z,9.10
2018-09-06T11:33:49.774Z,9.33
2018-09-06T11:36:30.362Z,7.90
2018-09-06T11:39:11.233Z,8.80
2018-09-06T11:41:51.787Z,9.60
2018-09-06T11:44:20.136Z,9.33
2018-09-06T11:46:54.183Z,9.60
2018-09-06T11:49:22.398Z,9.20
2018-09-06T11:51:57.565Z,9.10
2018-09-06T11:54:30.863Z,8.43
2018-09-06T11:57:11.651Z,9.07
2018-09-06T11:59:53.242Z,9.70
2018-09-06T12:02:21.559Z,9.37
2018-09-06T12:04:49.801Z,10.20
2018-09-06T12:07:31.134Z,9.77
2018-09-06T12:10:11.917Z,9.10
2018-09-06T12:12:40.220Z,8.83
2018-09-06T12:15:08.658Z,9.07
2018-09-06T12:17:36.955Z,8.30
2018-09-06T12:20:05.253Z,9.80
2018-09-06T12:22:46.385Z,9.07
2018-09-06T12:25:26.862Z,8.40
2018-09-06T12:27:55.597Z,8.40
2018-09-06T12:30:23.868Z,9.37
2018-09-06T12:33:04.324Z,8.00
2018-09-06T12:35:44.896Z,9.77
2018-09-06T12:38:25.448Z,8.47
2018-09-06T12:40:53.731Z,8.30
2018-09-06T12:43:34.864Z,8.93
2018-09-06T12:46:15.546Z,9.90
2018-09-06T12:48:56.141Z,9.25
2018-09-06T12:51:36.791Z,9.90
2018-09-06T12:54:17.461Z,8.48
2018-09-06T12:56:45.667Z,8.98
2018-09-06T12:59:14.076Z,9.85
2018-09-06T13:01:42.375Z,8.65
2018-09-06T13:04:23.529Z,8.70
2018-09-06T13:06:52.285Z,8.60
2018-09-06T13:09:32.654Z,13.00
2018-09-06T13:12:00.964Z,9.60
2018-09-06T13:14:41.975Z,8.93
2018-09-06T13:17:11.305Z,9.20
2018-09-06T13:19:51.886Z,8.60
2018-09-06T13:22:32.480Z,8.98
2018-09-06T13:25:13.012Z,9.80
2018-09-06T13:27:53.706Z,8.75
2018-09-06T13:30:34.380Z,8.65
2018-09-06T13:33:14.943Z,8.73
2018-09-06T13:35:55.731Z,8.18
2018-09-06T13:38:24.087Z,9.80
2018-09-06T13:41:04.989Z,8.28
2018-09-06T13:43:45.581Z,8.35
2018-09-06T13:46:13.846Z,10.03
2018-09-06T13:48:54.080Z,10.63
2018-09-06T13:51:22.503Z,8.55
2018-09-06T13:53:50.891Z,11.65
2018-09-06T13:56:31.534Z,8.10
2018-09-06T13:59:12.353Z,9.08
2018-09-06T14:01:40.759Z,9.13
2018-09-06T14:04:21.403Z,9.60
2018-09-06T14:07:01.973Z,7.95
2018-09-06T14:09:31.120Z,9.78
2018-09-06T14:12:11.439Z,8.63
2018-09-06T14:14:39.854Z,9.70
2018-09-06T14:17:08.673Z,8.30
2018-09-06T14:19:49.431Z,8.03
2018-09-06T14:22:24.253Z,8.40
2018-09-06T14:25:05.458Z,8.23
2018-09-06T14:27:33.803Z,9.78
2018-09-06T14:30:02.257Z,9.90
2018-09-06T14:32:31.156Z,10.13
2018-09-06T14:34:59.573Z,10.13
2018-09-06T14:37:28.061Z,9.63
2018-09-06T14:39:56.522Z,9.08
2018-09-06T14:42:24.983Z,7.95
2018-09-06T14:44:54.354Z,9.55
2018-09-06T14:47:22.820Z,8.80
2018-09-06T14:49:51.171Z,9.85
2018-09-06T14:52:19.906Z,9.78
2018-09-06T14:54:48.137Z,9.13
2018-09-06T14:57:16.411Z,9.65
2018-09-06T14:59:44.698Z,10.43
2018-09-06T15:02:16.331Z,9.53
2018-09-06T15:04:56.519Z,9.48
2018-09-06T15:07:31.074Z,8.90
2018-09-06T15:10:11.270Z,9.53
2018-09-06T15:12:39.561Z,9.63
2018-09-06T15:15:07.857Z,9.85
2018-09-06T15:17:36.336Z,10.93
2018-09-06T15:20:18.661Z,9.90
2018-09-06T15:22:47.015Z,9.80
2018-09-06T15:25:15.225Z,8.65
2018-09-06T15:27:49.636Z,9.43
2018-09-06T15:30:30.085Z,9.93
2018-09-06T15:32:58.393Z,8.05
2018-09-06T15:35:38.673Z,8.48
2018-09-06T15:38:19.164Z,9.65
2018-09-06T15:40:59.749Z,8.98
2018-09-06T15:43:28.073Z,58.55
2018-09-06T15:46:09.173Z,9.73
2018-09-06T15:48:49.696Z,10.05
2018-09-06T15:51:30.521Z,10.08
2018-09-06T15:54:11.229Z,11.75
2018-09-06T15:56:51.994Z,9.55
2018-09-06T15:59:32.657Z,10.50
2018-09-06T16:02:13.454Z,13.90
2018-09-06T16:04:54.454Z,11.20
2018-09-06T16:07:35.948Z,10.90
2018-09-06T16:10:04.787Z,11.90
2018-09-06T16:12:33.384Z,10.65
2018-09-06T16:15:02.688Z,10.58
2018-09-06T16:17:34.341Z,12.37
2018-09-06T16:20:02.708Z,11.18
2018-09-06T16:22:43.761Z,11.03
2018-09-06T16:25:14.664Z,10.80
2018-09-06T16:27:55.708Z,10.18
2018-09-06T16:30:24.216Z,13.43
2018-09-06T16:32:54.620Z,10.58
2018-09-06T16:35:35.701Z,9.70
2018-09-06T16:38:16.277Z,10.65
2018-09-06T16:40:56.736Z,10.32
2018-09-06T16:43:37.565Z,11.45
2018-09-06T16:46:05.879Z,9.38
2018-09-06T16:48:34.171Z,11.55
2018-09-06T16:51:02.493Z,11.35
2018-09-06T16:53:30.802Z,10.00
2018-09-06T16:55:59.050Z,9.50
2018-09-06T16:58:39.660Z,10.45
2018-09-06T17:01:22.248Z,11.12
2018-09-06T17:04:02.403Z,10.95
2018-09-06T17:06:43.203Z,13.30
2018-09-06T17:09:23.829Z,14.05
2018-09-06T17:11:52.194Z,11.08
2018-09-06T17:14:32.871Z,9.80
2018-09-06T17:17:13.586Z,22.22
2018-09-06T17:19:53.987Z,12.25
2018-09-06T17:22:34.537Z,10.63
2018-09-06T17:25:15.138Z,11.00
2018-09-06T17:27:55.736Z,9.70
2018-09-06T17:30:36.337Z,11.05
2018-09-06T17:33:06.648Z,10.20
2018-09-06T17:35:34.919Z,12.50
2018-09-06T17:38:03.811Z,10.32
2018-09-06T17:40:34.017Z,9.68
2018-09-06T17:43:04.114Z,10.15
2018-09-06T17:45:33.545Z,10.55
2018-09-06T17:48:14.473Z,13.60
2018-09-06T17:50:42.754Z,11.00
2018-09-06T17:53:14.700Z,11.08
2018-09-06T17:55:46.989Z,10.90
2018-09-06T17:58:15.404Z,10.95
2018-09-06T18:00:56.579Z,11.73
2018-09-06T18:03:37.033Z,12.03
2018-09-06T18:06:18.740Z,12.47
2018-09-06T18:08:47.053Z,10.78
2018-09-06T18:11:28.689Z,11.30
2018-09-06T18:14:10.177Z,11.93
2018-09-06T18:16:38.489Z,11.80
2018-09-06T18:19:06.765Z,13.13
2018-09-06T18:21:46.912Z,22.05
2018-09-06T18:24:28.321Z,13.35
2018-09-06T18:26:56.614Z,12.43
2018-09-06T18:29:37.240Z,11.05
2018-09-06T18:32:17.985Z,12.15
2018-09-06T18:34:58.570Z,10.40
2018-09-06T18:37:39.159Z,12.35
2018-09-06T18:40:19.716Z,13.25
2018-09-06T18:43:00.224Z,15.85
2018-09-06T18:45:28.542Z,38.00
2018-09-06T18:48:09.418Z,12.75
2018-09-06T18:50:50.257Z,14.38
2018-09-06T18:53:30.829Z,11.53
2018-09-06T18:56:11.578Z,18.73
2018-09-06T18:58:52.225Z,12.80
2018-09-06T19:01:32.917Z,13.83
2018-09-06T19:04:01.188Z,12.82
2018-09-06T19:06:41.405Z,40.48
2018-09-06T19:09:11.703Z,21.37
2018-09-06T19:11:52.925Z,12.65
2018-09-06T19:14:33.440Z,14.25
2018-09-06T19:17:01.683Z,16.50
2018-09-06T19:19:42.004Z,14.15
2018-09-06T19:22:22.472Z,12.23
2018-09-06T19:25:03.379Z,17.25
2018-09-06T19:27:44.665Z,13.40
2018-09-06T19:30:25.978Z,12.55
2018-09-06T19:32:54.436Z,12.82
2018-09-06T19:35:22.770Z,12.75
2018-09-06T19:38:03.518Z,12.25
2018-09-06T19:40:44.268Z,11.63
2018-09-06T19:43:24.937Z,11.78
2018-09-06T19:46:05.599Z,11.50
2018-09-06T19:48:46.333Z,12.45
2018-09-06T19:51:14.697Z,11.68
2018-09-06T19:53:43.006Z,18.85
2018-09-06T19:56:23.445Z,25.30
2018-09-06T19:59:04.076Z,13.80
2018-09-06T20:01:44.738Z,13.43
2018-09-06T20:04:25.230Z,12.43
2018-09-06T20:07:06.950Z,11.90
2018-09-06T20:09:47.474Z,13.95
2018-09-06T20:12:28.079Z,12.05
2018-09-06T20:14:56.858Z,13.25
2018-09-06T20:17:37.644Z,14.25
2018-09-06T20:20:07.369Z,11.55
2018-09-06T20:22:47.799Z,11.88
2018-09-06T20:25:28.662Z,12.18
2018-09-06T20:28:09.109Z,11.85
2018-09-06T20:30:49.551Z,11.00
2018-09-06T20:33:30.243Z,14.53
2018-09-06T20:36:10.691Z,11.75
2018-09-06T20:38:51.321Z,11.85
2018-09-06T20:41:19.775Z,12.70
2018-09-06T20:44:00.631Z,12.03
2018-09-06T20:46:41.270Z,12.25
2018-09-06T20:49:21.981Z,13.53
2018-09-06T20:52:02.553Z,11.68
2018-09-06T20:54:43.167Z,13.20
2018-09-06T20:57:23.728Z,14.00
2018-09-06T21:00:04.407Z,13.00
2018-09-06T21:02:45.047Z,11.00
2018-09-06T21:05:25.682Z,11.60
2018-09-06T21:08:06.887Z,13.35
2018-09-06T21:10:48.019Z,13.53
2018-09-06T21:13:28.452Z,12.07
2018-09-06T21:16:09.100Z,13.28
2018-09-06T21:18:50.921Z,13.00
2018-09-06T21:21:31.321Z,12.37
2018-09-06T21:24:11.891Z,13.88
2018-09-06T21:26:41.235Z,12.68
2018-09-06T21:29:22.321Z,12.63
2018-09-06T21:32:03.412Z,11.75
2018-09-06T21:34:32.636Z,13.13
2018-09-06T21:37:01.904Z,11.70
2018-09-06T21:39:31.580Z,13.78
2018-09-06T21:42:11.741Z,16.95
2018-09-06T21:44:40.145Z,13.78
2018-09-06T21:47:21.009Z,13.90
2018-09-06T21:50:01.829Z,12.30
2018-09-06T21:52:30.118Z,19.25
2018-09-06T21:55:11.001Z,13.65
2018-09-06T21:57:51.748Z,13.03
2018-09-06T22:00:21.076Z,13.78
2018-09-06T22:02:54.877Z,11.50
2018-09-06T22:05:35.909Z,12.65
2018-09-06T22:08:16.513Z,15.05
2018-09-06T22:10:56.912Z,14.93
2018-09-06T22:13:31.021Z,13.90
2018-09-06T22:16:11.360Z,14.53
2018-09-06T22:18:39.788Z,13.55
2018-09-06T22:21:20.658Z,11.97
2018-09-06T22:24:01.445Z,13.20
2018-09-06T22:26:42.136Z,14.07
2018-09-06T22:29:10.397Z,16.40
2018-09-06T22:31:39.988Z,15.55
2018-09-06T22:34:20.164Z,12.55
2018-09-06T22:36:48.389Z,12.75
2018-09-06T22:39:16.653Z,13.58
2018-09-06T22:41:57.569Z,13.30
2018-09-06T22:44:25.834Z,15.58
2018-09-06T22:47:07.207Z,15.05
2018-09-06T22:49:47.610Z,13.90
2018-09-06T22:52:28.247Z,14.90
2018-09-06T22:55:02.876Z,13.62
2018-09-06T22:57:35.172Z,16.40
2018-09-06T23:00:17.421Z,13.93
2018-09-06T23:02:54.427Z,13.58
2018-09-06T23:05:35.596Z,14.10
2018-09-06T23:08:15.985Z,13.85
2018-09-06T23:10:56.597Z,15.15
2018-09-06T23:13:37.201Z,14.00
2018-09-06T23:16:05.489Z,15.23
2018-09-06T23:18:33.785Z,13.38
2018-09-06T23:21:02.048Z,14.15
2018-09-06T23:23:36.711Z,15.15
2018-09-06T23:26:05.142Z,15.23
2018-09-06T23:28:39.281Z,15.58
2018-09-06T23:31:07.699Z,15.40
2018-09-06T23:33:35.940Z,14.40
2018-09-06T23:36:04.151Z,14.55
2018-09-06T23:38:33.420Z,15.30
2018-09-06T23:41:03.102Z,13.78
2018-09-06T23:43:44.126Z,15.85
2018-09-06T23:46:12.397Z,17.52
2018-09-06T23:48:48.576Z,20.35
2018-09-06T23:51:29.417Z,18.25
2018-09-06T23:54:09.881Z,15.00
2018-09-06T23:56:38.171Z,15.32
2018-09-06T23:59:19.202Z,14.60
